Far Rockaway, New York
Current Conditions -  °F | °C
As of 10:51 PM on Monday 22 Dec 2014 (Local Time) from KJFK Reporting Station
Light Rain Light Rain  
Wind Chill: 41°   Ceiling: 800
Heat Index: 47°   Visibility: 10mi
Dew Point: 43°   Wind: 13mph
Humidity: 86%   Direction: 80°E
Pressure: 30.2"   Gusts: NA
Location:  40.61°N, 73.76°W
Report Text: KJFK 230351Z 08011KT 10SM -RA OVC008 08/06 A3020 RMK AO2 SLP226 P0002 T00830061 $
Loading
Personal Weather Stations






























Interactive Weather Map New forecast layout! Learn more

10-Day Weather Forecast

Advertisements
Track Severe Weather on mobile